createdAt,value
2018-06-15T00:02:19.761Z,79.78
2018-06-15T00:04:47.772Z,79.10
2018-06-15T00:07:15.873Z,79.00
2018-06-15T00:09:43.848Z,79.09
2018-06-15T00:12:11.860Z,78.79
2018-06-15T00:14:39.866Z,79.72
2018-06-15T00:17:07.892Z,79.64
2018-06-15T00:19:35.901Z,79.91
2018-06-15T00:22:04.004Z,80.81
2018-06-15T00:24:32.021Z,80.28
2018-06-15T00:27:00.032Z,79.76
2018-06-15T00:29:28.118Z,80.59
2018-06-15T00:31:56.089Z,80.18
2018-06-15T00:34:24.108Z,79.61
2018-06-15T00:36:52.110Z,79.64
2018-06-15T00:39:20.137Z,80.20
2018-06-15T00:41:48.148Z,79.12
2018-06-15T00:44:16.172Z,79.71
2018-06-15T00:46:44.161Z,79.37
2018-06-15T00:49:12.181Z,80.16
2018-06-15T00:51:40.197Z,79.18
2018-06-15T00:54:08.205Z,79.21
2018-06-15T00:56:46.466Z,79.22
2018-06-15T00:59:14.644Z,79.33
2018-06-15T01:01:42.820Z,78.94
2018-06-15T01:04:10.839Z,79.95
2018-06-15T01:06:38.833Z,78.45
2018-06-15T01:09:07.920Z,78.93
2018-06-15T01:11:36.240Z,79.07
2018-06-15T01:14:04.315Z,77.48
2018-06-15T01:16:32.345Z,78.96
2018-06-15T01:19:00.620Z,77.66
2018-06-15T01:21:28.640Z,78.19
2018-06-15T01:23:56.645Z,78.17
2018-06-15T01:26:24.666Z,77.46
2018-06-15T01:28:52.668Z,79.25
2018-06-15T01:31:20.676Z,79.19
2018-06-15T01:33:48.696Z,79.17
2018-06-15T01:36:16.701Z,78.39
2018-06-15T01:38:44.709Z,78.80
2018-06-15T01:41:12.721Z,78.69
2018-06-15T01:43:40.846Z,77.69
2018-06-15T01:46:08.844Z,79.08
2018-06-15T01:48:36.855Z,77.86
2018-06-15T01:51:04.897Z,78.10
2018-06-15T01:53:32.917Z,77.60
2018-06-15T01:56:00.932Z,77.25
2018-06-15T01:58:28.917Z,78.12
2018-06-15T02:00:56.914Z,77.05
2018-06-15T02:03:24.888Z,76.94
2018-06-15T02:05:53.049Z,77.52
2018-06-15T02:08:21.084Z,77.40
2018-06-15T02:10:49.108Z,76.77
2018-06-15T02:13:17.184Z,76.68
2018-06-15T02:15:45.217Z,77.11
2018-06-15T02:18:13.208Z,76.74
2018-06-15T02:20:41.216Z,76.93
2018-06-15T02:23:09.213Z,77.25
2018-06-15T02:25:37.285Z,77.07
2018-06-15T02:28:05.334Z,77.35
2018-06-15T02:30:33.308Z,77.21
2018-06-15T02:33:01.319Z,77.68
2018-06-15T02:35:29.308Z,77.31
2018-06-15T02:40:36.816Z,77.68
2018-06-15T02:43:04.845Z,77.34
2018-06-15T02:45:32.926Z,78.29
2018-06-15T02:48:00.932Z,78.16
2018-06-15T02:50:29.113Z,77.79
2018-06-15T02:52:57.137Z,77.89
2018-06-15T02:55:25.161Z,79.44
2018-06-15T02:57:53.294Z,78.67
2018-06-15T03:00:21.303Z,80.06
2018-06-15T03:02:49.318Z,79.47
2018-06-15T03:05:17.354Z,78.65
2018-06-15T03:07:45.416Z,78.40
2018-06-15T03:10:13.393Z,77.76
2018-06-15T03:12:41.428Z,77.96
2018-06-15T03:15:09.440Z,77.40
2018-06-15T03:17:37.468Z,77.28
2018-06-15T03:20:05.524Z,77.03
2018-06-15T03:22:33.572Z,77.43
2018-06-15T03:25:01.593Z,77.25
2018-06-15T03:27:29.685Z,76.42
2018-06-15T03:29:57.668Z,76.73
2018-06-15T03:32:25.648Z,76.03
2018-06-15T03:34:53.708Z,76.84
2018-06-15T03:37:21.844Z,76.95
2018-06-15T03:39:49.851Z,76.36
2018-06-15T03:42:17.880Z,75.95
2018-06-15T03:44:45.896Z,76.47
2018-06-15T03:47:13.917Z,76.09
2018-06-15T03:49:41.958Z,76.72
2018-06-15T03:52:09.974Z,76.52
2018-06-15T03:54:38.015Z,75.99
2018-06-15T03:57:06.050Z,75.82
2018-06-15T03:59:34.051Z,76.37
2018-06-15T04:02:02.057Z,75.40
2018-06-15T04:04:30.055Z,75.83
2018-06-15T04:06:58.053Z,75.05
2018-06-15T04:09:26.092Z,75.77
2018-06-15T04:11:54.165Z,75.81
2018-06-15T04:14:22.189Z,76.24
2018-06-15T04:16:50.200Z,75.54
2018-06-15T04:19:18.225Z,76.23
2018-06-15T04:21:46.278Z,76.19
2018-06-15T04:24:14.329Z,76.14
2018-06-15T04:26:42.488Z,75.89
2018-06-15T04:29:10.501Z,76.49
2018-06-15T04:31:38.476Z,76.15
2018-06-15T04:34:06.521Z,75.18
2018-06-15T04:36:34.521Z,75.94
2018-06-15T04:39:02.520Z,74.82
2018-06-15T04:41:30.552Z,75.59
2018-06-15T04:43:58.568Z,75.12
2018-06-15T04:46:26.581Z,75.59
2018-06-15T04:48:54.592Z,75.00
2018-06-15T04:51:22.588Z,74.71
2018-06-15T04:53:50.588Z,74.83
2018-06-15T04:56:18.791Z,74.58
2018-06-15T04:58:46.753Z,73.34
2018-06-15T05:01:14.773Z,72.99
2018-06-15T05:03:42.789Z,73.34
2018-06-15T05:06:10.787Z,72.94
2018-06-15T05:08:38.872Z,72.54
2018-06-15T05:11:06.920Z,72.37
2018-06-15T05:13:34.988Z,72.60
2018-06-15T05:16:03.000Z,71.95
2018-06-15T05:18:31.010Z,70.88
2018-06-15T05:20:58.996Z,71.05
2018-06-15T05:23:27.257Z,70.84
2018-06-15T05:25:55.249Z,71.47
2018-06-15T05:28:23.321Z,70.58
2018-06-15T05:30:51.322Z,70.65
2018-06-15T05:33:19.324Z,70.75
2018-06-15T05:35:47.309Z,70.09
2018-06-15T05:38:15.306Z,69.91
2018-06-15T05:40:43.294Z,68.47
2018-06-15T05:43:11.281Z,67.49
2018-06-15T05:45:39.277Z,68.42
2018-06-15T05:48:07.341Z,69.09
2018-06-15T05:50:35.362Z,67.41
2018-06-15T05:53:03.358Z,68.17
2018-06-15T05:55:31.381Z,68.24
2018-06-15T05:57:59.420Z,68.24
2018-06-15T06:00:27.433Z,66.84
2018-06-15T06:02:55.658Z,66.16
2018-06-15T06:05:23.694Z,67.25
2018-06-15T06:07:51.737Z,66.63
2018-06-15T06:10:19.808Z,66.52
2018-06-15T06:12:47.821Z,65.78
2018-06-15T06:15:15.825Z,68.00
2018-06-15T06:17:43.848Z,66.47
2018-06-15T06:20:11.876Z,65.32
2018-06-15T06:22:39.881Z,65.22
2018-06-15T06:25:07.996Z,63.35
2018-06-15T06:27:36.003Z,63.05
2018-06-15T06:30:04.766Z,62.55
2018-06-15T06:32:32.847Z,61.79
2018-06-15T06:35:00.866Z,62.15
2018-06-15T06:37:28.877Z,59.53
2018-06-15T06:39:56.876Z,60.70
2018-06-15T06:42:24.883Z,60.13
2018-06-15T06:44:52.869Z,60.10
2018-06-15T06:47:20.882Z,59.22
2018-06-15T06:49:48.876Z,57.68
2018-06-15T06:52:16.885Z,57.62
2018-06-15T06:54:44.926Z,56.21
2018-06-15T06:57:12.920Z,55.59
2018-06-15T06:59:40.916Z,53.16
2018-06-15T07:02:08.904Z,53.43
2018-06-15T07:04:36.936Z,52.10
2018-06-15T07:07:04.973Z,52.00
2018-06-15T07:09:33.139Z,52.08
2018-06-15T07:12:01.161Z,54.40
2018-06-15T07:14:29.349Z,53.25
2018-06-15T07:16:57.440Z,52.86
2018-06-15T07:19:25.617Z,53.14
2018-06-15T07:21:53.653Z,51.15
2018-06-15T07:24:21.676Z,52.71
2018-06-15T07:26:49.714Z,52.27
2018-06-15T07:29:17.851Z,53.11
2018-06-15T07:31:46.105Z,50.24
2018-06-15T07:34:14.112Z,48.73
2018-06-15T07:36:42.158Z,46.21
2018-06-15T07:39:11.393Z,47.79
2018-06-15T07:41:39.400Z,47.39
2018-06-15T07:44:07.516Z,46.23
2018-06-15T07:46:35.701Z,45.38
2018-06-15T07:49:03.694Z,42.62
2018-06-15T07:51:31.714Z,41.72
2018-06-15T07:53:59.770Z,42.62
2018-06-15T07:56:27.801Z,40.70
2018-06-15T07:58:55.844Z,39.30
2018-06-15T08:01:23.868Z,40.99
2018-06-15T08:04:02.266Z,43.48
2018-06-15T08:06:30.256Z,39.00
2018-06-15T08:08:58.677Z,37.71
2018-06-15T08:11:26.747Z,37.74
2018-06-15T08:13:54.776Z,35.95
2018-06-15T08:16:22.795Z,37.71
2018-06-15T08:18:50.800Z,39.49
2018-06-15T08:21:18.821Z,38.88
2018-06-15T08:23:47.004Z,40.20
2018-06-15T08:26:15.052Z,42.94
2018-06-15T08:28:43.096Z,41.27
2018-06-15T08:31:11.101Z,42.92
2018-06-15T08:33:39.131Z,42.34
2018-06-15T08:36:07.154Z,43.28
2018-06-15T08:38:35.205Z,41.22
2018-06-15T08:41:03.252Z,39.47
2018-06-15T08:43:31.273Z,37.27
2018-06-15T08:45:59.250Z,35.04
2018-06-15T08:48:27.508Z,35.13
2018-06-15T08:50:55.528Z,32.69
2018-06-15T08:53:23.556Z,33.52
2018-06-15T08:55:51.565Z,33.92
2018-06-15T08:58:19.604Z,33.54
2018-06-15T09:00:48.085Z,34.30
2018-06-15T09:03:16.445Z,33.15
2018-06-15T09:05:44.385Z,32.72
2018-06-15T09:08:12.509Z,32.23
2018-06-15T09:10:40.527Z,31.61
2018-06-15T09:13:08.532Z,34.03
2018-06-15T09:15:36.539Z,33.77
2018-06-15T09:18:04.614Z,32.36
2018-06-15T09:20:32.606Z,33.66
2018-06-15T09:23:00.736Z,34.16
2018-06-15T09:25:28.725Z,34.75
2018-06-15T09:27:56.713Z,34.60
2018-06-15T09:30:24.697Z,33.49
2018-06-15T09:32:52.752Z,34.42
2018-06-15T09:35:20.764Z,34.21
2018-06-15T09:37:48.773Z,33.09
2018-06-15T09:40:16.784Z,31.90
2018-06-15T09:42:44.795Z,34.01
2018-06-15T09:45:12.853Z,32.18
2018-06-15T09:47:41.170Z,34.20
2018-06-15T09:50:09.192Z,32.45
2018-06-15T09:52:37.208Z,30.23
2018-06-15T09:55:05.255Z,31.01
2018-06-15T09:57:33.313Z,30.71
2018-06-15T10:00:01.325Z,30.55
2018-06-15T10:02:29.316Z,32.88
2018-06-15T10:04:57.341Z,31.68
2018-06-15T10:07:25.332Z,32.80
2018-06-15T10:09:53.352Z,30.44
2018-06-15T10:12:21.345Z,31.30
2018-06-15T10:14:49.428Z,30.58
2018-06-15T10:17:17.434Z,31.49
2018-06-15T10:19:45.462Z,31.05
2018-06-15T10:22:13.472Z,33.02
2018-06-15T10:24:41.485Z,33.00
2018-06-15T10:27:09.530Z,33.89
2018-06-15T10:29:37.684Z,33.81
2018-06-15T10:32:05.857Z,33.03
2018-06-15T10:34:33.864Z,33.78
2018-06-15T10:37:01.849Z,34.13
2018-06-15T10:39:29.928Z,34.28
2018-06-15T10:41:57.865Z,34.89
2018-06-15T10:44:25.857Z,35.85
2018-06-15T10:46:53.856Z,35.95
2018-06-15T10:49:21.840Z,34.85
2018-06-15T10:51:49.844Z,34.54
2018-06-15T10:54:17.865Z,35.55
2018-06-15T10:56:45.853Z,34.80
2018-06-15T10:59:13.857Z,34.44
2018-06-15T11:01:41.830Z,33.84
2018-06-15T11:04:09.962Z,33.43
2018-06-15T11:06:37.942Z,30.36
2018-06-15T11:09:07.654Z,30.18
2018-06-15T11:11:35.696Z,31.05
2018-06-15T11:14:03.868Z,29.14
2018-06-15T11:16:31.940Z,28.79
2018-06-15T11:18:59.970Z,29.80
2018-06-15T11:21:28.017Z,29.46
2018-06-15T11:23:56.024Z,28.76
2018-06-15T11:26:24.029Z,29.93
2018-06-15T11:28:52.036Z,29.04
2018-06-15T11:31:20.031Z,29.64
2018-06-15T11:33:48.050Z,29.60
2018-06-15T11:36:16.113Z,27.07
2018-06-15T11:38:44.144Z,29.11
2018-06-15T11:41:12.300Z,29.88
2018-06-15T11:43:40.362Z,30.39
2018-06-15T11:46:08.357Z,30.02
2018-06-15T11:48:36.366Z,29.05
2018-06-15T11:51:04.397Z,28.20
2018-06-15T11:53:32.473Z,29.42
2018-06-15T11:56:00.481Z,28.92
2018-06-15T11:58:28.517Z,28.33
2018-06-15T12:00:56.517Z,27.48
2018-06-15T12:03:24.593Z,27.62
2018-06-15T12:05:52.688Z,26.32
2018-06-15T12:08:20.719Z,27.30
2018-06-15T12:10:49.347Z,27.02
2018-06-15T12:13:17.549Z,27.01
2018-06-15T12:15:45.593Z,27.08
2018-06-15T12:18:13.592Z,27.99
2018-06-15T12:20:41.614Z,27.45
2018-06-15T12:23:09.714Z,28.20
2018-06-15T12:25:38.286Z,27.07
2018-06-15T12:28:06.352Z,25.68
2018-06-15T12:30:34.354Z,25.90
2018-06-15T12:33:02.964Z,28.56
2018-06-15T12:35:30.993Z,27.83
2018-06-15T12:37:59.146Z,26.87
2018-06-15T12:40:27.140Z,28.27
2018-06-15T12:42:55.157Z,26.69
2018-06-15T12:45:23.226Z,26.59
2018-06-15T12:47:51.217Z,27.36
2018-06-15T12:50:19.507Z,26.99
2018-06-15T12:52:47.492Z,27.48
2018-06-15T12:55:15.488Z,25.42
2018-06-15T12:57:43.484Z,24.74
2018-06-15T13:00:11.520Z,28.32
2018-06-15T13:02:39.546Z,25.70
2018-06-15T13:05:07.646Z,25.82
2018-06-15T13:07:35.682Z,25.55
2018-06-15T13:10:03.861Z,26.45
2018-06-15T13:12:31.842Z,25.54
2018-06-15T13:14:59.854Z,25.36
2018-06-15T13:17:27.886Z,26.71
2018-06-15T13:19:56.187Z,24.82
2018-06-15T13:22:24.176Z,25.46
2018-06-15T13:24:52.500Z,26.83
2018-06-15T13:27:20.545Z,25.66
2018-06-15T13:29:48.545Z,25.82
2018-06-15T13:32:16.618Z,25.84
2018-06-15T13:34:44.633Z,25.16
2018-06-15T13:37:12.730Z,25.00
2018-06-15T13:39:40.919Z,25.21
2018-06-15T13:42:08.904Z,26.19
2018-06-15T13:44:36.908Z,25.95
2018-06-15T13:47:05.012Z,26.22
2018-06-15T13:49:33.042Z,25.27
2018-06-15T13:52:01.061Z,25.36
2018-06-15T13:54:29.064Z,26.88
2018-06-15T13:56:57.100Z,26.40
2018-06-15T13:59:25.247Z,26.47
2018-06-15T14:01:53.234Z,25.75
2018-06-15T14:04:21.208Z,26.28
2018-06-15T14:06:49.289Z,25.59
2018-06-15T14:09:17.269Z,24.25
2018-06-15T14:11:46.252Z,24.47
2018-06-15T14:14:14.253Z,24.12
2018-06-15T14:16:42.657Z,25.00
2018-06-15T14:19:10.629Z,24.30
2018-06-15T14:21:38.689Z,25.60
2018-06-15T14:24:07.206Z,26.53
2018-06-15T14:26:35.224Z,26.09
2018-06-15T14:29:03.246Z,26.44
2018-06-15T14:31:31.490Z,25.45
2018-06-15T14:33:59.539Z,26.19
2018-06-15T14:36:27.748Z,23.74
2018-06-15T14:38:55.761Z,25.62
2018-06-15T14:41:23.791Z,25.60
2018-06-15T14:43:51.768Z,26.16
2018-06-15T14:46:19.862Z,26.32
2018-06-15T14:48:47.866Z,26.35
2018-06-15T14:51:15.869Z,26.00
2018-06-15T14:53:43.888Z,24.76
2018-06-15T14:56:11.916Z,25.44
2018-06-15T14:58:39.929Z,25.15
2018-06-15T15:01:08.017Z,25.94
2018-06-15T15:03:36.057Z,26.45
2018-06-15T15:06:04.292Z,26.88
2018-06-15T15:08:32.300Z,26.15
2018-06-15T15:11:00.304Z,24.22
2018-06-15T15:13:28.315Z,26.08
2018-06-15T15:15:56.430Z,26.53
2018-06-15T15:18:24.492Z,27.80
2018-06-15T15:20:52.540Z,27.96
2018-06-15T15:23:20.562Z,27.89
2018-06-15T15:25:48.572Z,28.26
2018-06-15T15:28:16.761Z,28.92
2018-06-15T15:30:44.760Z,29.78
2018-06-15T15:33:12.765Z,31.34
2018-06-15T15:35:40.789Z,29.98
2018-06-15T15:38:08.816Z,29.52
2018-06-15T15:40:36.927Z,29.25
2018-06-15T15:43:05.049Z,29.29
2018-06-15T15:45:33.044Z,28.87
2018-06-15T15:48:01.032Z,28.48
2018-06-15T15:50:29.079Z,28.42
2018-06-15T15:52:57.044Z,27.44
2018-06-15T15:55:25.015Z,27.05
2018-06-15T15:57:53.112Z,28.84
2018-06-15T16:00:21.065Z,27.15
2018-06-15T16:02:49.200Z,28.12
2018-06-15T16:05:17.232Z,27.63
2018-06-15T16:07:45.232Z,27.06
2018-06-15T16:10:13.217Z,28.51
2018-06-15T16:12:41.211Z,28.82
2018-06-15T16:15:09.420Z,29.58
2018-06-15T16:17:37.549Z,28.87
2018-06-15T16:20:05.597Z,30.20
2018-06-15T16:22:33.616Z,29.73
2018-06-15T16:25:01.635Z,29.30
2018-06-15T16:27:29.661Z,29.43
2018-06-15T16:29:57.828Z,28.81
2018-06-15T16:32:25.981Z,29.14
2018-06-15T16:34:54.028Z,28.92
2018-06-15T16:37:22.031Z,29.85
2018-06-15T16:39:50.032Z,30.74
2018-06-15T16:42:18.227Z,30.46
2018-06-15T16:44:46.921Z,31.02
2018-06-15T16:47:15.160Z,31.61
2018-06-15T16:49:43.369Z,31.80
2018-06-15T16:52:11.368Z,31.03
2018-06-15T16:54:39.582Z,32.42
2018-06-15T16:57:07.680Z,32.47
2018-06-15T16:59:39.332Z,31.51
2018-06-15T17:02:07.793Z,31.70
2018-06-15T17:04:35.810Z,33.02
2018-06-15T17:07:03.838Z,33.57
2018-06-15T17:09:32.952Z,33.76
2018-06-15T17:12:01.029Z,32.59
2018-06-15T17:14:29.093Z,33.46
2018-06-15T17:16:57.095Z,33.17
2018-06-15T17:19:25.190Z,33.85
2018-06-15T17:21:53.160Z,34.42
2018-06-15T17:24:21.149Z,35.20
2018-06-15T17:26:49.182Z,33.98
2018-06-15T17:29:17.204Z,34.72
2018-06-15T17:31:45.264Z,35.35
2018-06-15T17:34:13.246Z,35.18
2018-06-15T17:36:44.705Z,35.64
2018-06-15T17:39:13.500Z,36.15
2018-06-15T17:41:42.500Z,36.30
2018-06-15T17:44:10.597Z,36.42
2018-06-15T17:46:38.640Z,36.24
2018-06-15T17:49:07.104Z,36.84
2018-06-15T17:51:35.125Z,36.94
2018-06-15T17:54:03.125Z,36.73
2018-06-15T17:56:31.117Z,37.03
2018-06-15T17:58:59.172Z,37.22
2018-06-15T18:01:27.180Z,36.12
2018-06-15T18:03:55.230Z,37.26
2018-06-15T18:06:23.217Z,36.63
2018-06-15T18:08:51.520Z,36.36
2018-06-15T18:11:19.549Z,36.79
2018-06-15T18:13:47.584Z,37.41
2018-06-15T18:16:15.792Z,37.33
2018-06-15T18:18:43.829Z,37.55
2018-06-15T18:21:11.876Z,37.35
2018-06-15T18:23:39.938Z,37.13
2018-06-15T18:26:07.952Z,38.11
2018-06-15T18:28:35.978Z,38.06
2018-06-15T18:31:04.238Z,37.45
2018-06-15T18:33:32.324Z,37.71
2018-06-15T18:36:00.464Z,37.88
2018-06-15T18:38:29.269Z,38.37
2018-06-15T18:40:57.289Z,38.58
2018-06-15T18:43:25.652Z,38.20
2018-06-15T18:45:53.757Z,38.17
2018-06-15T18:48:21.777Z,39.30
2018-06-15T18:50:49.832Z,38.52
2018-06-15T18:53:17.893Z,39.23
2018-06-15T18:55:45.924Z,38.52
2018-06-15T18:58:13.954Z,39.31
2018-06-15T19:00:42.005Z,39.15
2018-06-15T19:03:09.984Z,39.18
2018-06-15T19:05:38.024Z,39.39
2018-06-15T19:08:06.025Z,39.07
2018-06-15T19:10:34.054Z,38.81
2018-06-15T19:13:02.062Z,39.47
2018-06-15T19:15:30.056Z,39.99
2018-06-15T19:17:58.050Z,40.33
2018-06-15T19:20:26.056Z,40.20
2018-06-15T19:22:54.084Z,39.95
2018-06-15T19:25:22.120Z,40.72
2018-06-15T19:27:50.100Z,39.86
2018-06-15T19:30:18.100Z,40.78
2018-06-15T19:32:46.230Z,40.81
2018-06-15T19:35:14.281Z,40.63
2018-06-15T19:37:42.307Z,40.85
2018-06-15T19:40:10.317Z,40.36
2018-06-15T19:42:38.348Z,40.94
2018-06-15T19:45:06.461Z,41.56
2018-06-15T19:47:34.420Z,41.25
2018-06-15T19:50:02.413Z,41.19
2018-06-15T19:52:30.408Z,42.16
2018-06-15T19:54:58.656Z,41.59
2018-06-15T19:57:26.705Z,41.64
2018-06-15T19:59:54.766Z,42.38
2018-06-15T20:02:22.801Z,41.70
2018-06-15T20:04:50.879Z,41.79
2018-06-15T20:07:18.876Z,42.47
2018-06-15T20:09:46.985Z,42.57
2018-06-15T20:12:16.001Z,42.99
2018-06-15T20:14:43.985Z,42.92
2018-06-15T20:17:12.013Z,43.29
2018-06-15T20:19:40.053Z,43.91
2018-06-15T20:22:08.037Z,43.99
2018-06-15T20:24:36.036Z,44.10
2018-06-15T20:27:04.029Z,44.01
2018-06-15T20:29:32.132Z,44.23
2018-06-15T20:32:00.544Z,44.71
2018-06-15T20:34:28.520Z,45.60
2018-06-15T20:36:56.516Z,45.18
2018-06-15T20:39:24.536Z,45.26
2018-06-15T20:41:52.641Z,45.54
2018-06-15T20:44:20.604Z,46.05
2018-06-15T20:46:48.653Z,45.57
2018-06-15T20:49:16.650Z,46.15
2018-06-15T20:51:44.668Z,46.17
2018-06-15T20:54:12.686Z,46.73
2018-06-15T20:56:40.664Z,46.98
2018-06-15T20:59:08.658Z,46.44
2018-06-15T21:01:36.760Z,46.82
2018-06-15T21:04:04.934Z,46.96
2018-06-15T21:06:32.917Z,46.91
2018-06-15T21:09:00.937Z,47.17
2018-06-15T21:11:28.981Z,47.06
2018-06-15T21:13:57.002Z,47.08
2018-06-15T21:16:25.277Z,46.92
2018-06-15T21:18:53.284Z,47.55
2018-06-15T21:21:21.283Z,47.15
2018-06-15T21:23:49.352Z,47.95
2018-06-15T21:26:17.337Z,47.60
2018-06-15T21:28:45.402Z,46.80
2018-06-15T21:31:13.380Z,47.69
2018-06-15T21:33:41.414Z,47.79
2018-06-15T21:36:09.604Z,47.03
2018-06-15T21:38:37.721Z,47.59
2018-06-15T21:41:05.720Z,46.55
2018-06-15T21:43:33.714Z,47.07
2018-06-15T21:46:01.745Z,46.90
2018-06-15T21:48:29.764Z,47.66
2018-06-15T21:50:57.806Z,47.55
2018-06-15T21:53:25.887Z,48.15
2018-06-15T21:55:53.890Z,48.20
2018-06-15T21:58:21.936Z,48.02
2018-06-15T22:00:49.926Z,48.47
2018-06-15T22:03:17.937Z,47.76
2018-06-15T22:05:45.972Z,48.71
2018-06-15T22:08:13.976Z,48.42
2018-06-15T22:10:42.369Z,47.56
2018-06-15T22:13:11.358Z,47.62
2018-06-15T22:15:39.352Z,48.64
2018-06-15T22:18:07.360Z,48.71
2018-06-15T22:20:35.397Z,47.84
2018-06-15T22:23:03.534Z,48.34
2018-06-15T22:25:31.548Z,48.88
2018-06-15T22:27:59.673Z,48.93
2018-06-15T22:30:27.690Z,48.80
2018-06-15T22:32:55.876Z,49.18
2018-06-15T22:35:23.889Z,48.79
2018-06-15T22:37:52.037Z,47.70
2018-06-15T22:40:20.093Z,48.15
2018-06-15T22:42:48.100Z,47.38
2018-06-15T22:45:16.104Z,47.82
2018-06-15T22:47:44.130Z,47.34
2018-06-15T22:50:12.135Z,47.29
2018-06-15T22:52:40.100Z,47.48
2018-06-15T22:55:08.093Z,48.45
2018-06-15T22:57:36.215Z,48.82
2018-06-15T23:00:05.024Z,48.17
2018-06-15T23:02:33.236Z,49.04
2018-06-15T23:05:01.273Z,48.42
2018-06-15T23:07:29.248Z,49.17
2018-06-15T23:09:57.332Z,49.17
2018-06-15T23:12:25.355Z,49.37
2018-06-15T23:14:53.438Z,49.99
2018-06-15T23:17:21.442Z,49.49
2018-06-15T23:19:49.449Z,50.84
2018-06-15T23:22:17.482Z,50.06
2018-06-15T23:24:45.454Z,50.59
2018-06-15T23:27:13.464Z,51.70
2018-06-15T23:29:41.481Z,52.02
2018-06-15T23:32:09.502Z,51.20
2018-06-15T23:34:37.704Z,50.59
2018-06-15T23:37:05.725Z,51.18
2018-06-15T23:39:33.716Z,51.37
2018-06-15T23:42:01.732Z,51.73
2018-06-15T23:44:29.763Z,52.59
2018-06-15T23:46:57.769Z,52.52
2018-06-15T23:49:25.846Z,52.60
2018-06-15T23:51:53.833Z,52.45
2018-06-15T23:54:21.824Z,52.90
2018-06-15T23:56:49.793Z,52.45
2018-06-15T23:59:17.808Z,52.82
